All
Eliwana Airport (Eliwana Mine, WA) WHB Weather
|
Eliwana Mine, WA (WHB / YEWA)
Clear skies
Windy |
|
69 °F |
WHB Terminal Area Forecast
| Date | Time (AWST) | Flight Rules | Wind Dir. | Speed | Type | Height AGL (ft) | Visibility | Remarks | ||||||
|---|---|---|---|---|---|---|---|---|---|---|---|---|---|---|
| 05-May | 03:00PM | VFR | 140° | 10 kt | Clouds and Visibility are OK | >= 6 miles | ||||||||
| 05-May | 02:00PM | VFR | 140° | 10 kt | Clouds and Visibility are OK | >= 6 miles | ||||||||
| 05-May | 01:00PM | VFR | 140° | 10 kt | Clouds and Visibility are OK | >= 6 miles | ||||||||
| 05-May | 12:00PM | VFR | 90° | 8 kt | Clouds and Visibility are OK | >= 6 miles | ||||||||
| 05-May | 11:00AM | VFR | 90° | 8 kt | Clouds and Visibility are OK | >= 6 miles | ||||||||
| 05-May | 10:00AM | VFR | 90° | 8 kt | Clouds and Visibility are OK | >= 6 miles | ||||||||
| 05-May | 09:00AM | VFR | 90° | 8 kt | Clouds and Visibility are OK | >= 6 miles | ||||||||
Recent WHB METAR history
| Date | Time (AWST) | Flight Rules | Wind Dir. | Speed | Type | Height AGL (ft) | Visibility | Temp (°C) | Temp (°F) | Dew Point (°C) | Dew Point (°F) | Rel. Humid. | Pressure | Density Altitude | Remarks |
|---|---|---|---|---|---|---|---|---|---|---|---|---|---|---|---|
| 05-May | 09:00AM | VFR | 70° | 14 kt | 10000 meters | 21° | 69° | 0° | 32° | 25% | 1021 mb | 2,312 ft | |||
| 05-May | 08:00AM | VFR | 80° | 16 kt | 10000 meters | 20° | 68° | 0° | 32° | 26% | 1020 mb | 2,222 ft | |||
| 05-May | 07:00AM | VFR | 70° | 11 kt | 10000 meters | 19° | 66° | -1° | 30° | 26% | 1020 mb | 2,102 ft | |||
| 05-May | 06:00AM | VFR | 80° | 12 kt | 10000 meters | 19° | 66° | -2° | 28° | 24% | 1018 mb | 2,161 ft | |||
| 05-May | 05:00AM | VFR | 80° | 11 kt | 10000 meters | 19° | 66° | -1° | 30° | 26% | 1018 mb | 2,161 ft | |||
| 05-May | 04:00AM | VFR | 90° | 9 kt | 10000 meters | 20° | 68° | 0° | 32° | 26% | 1018 mb | 2,281 ft | |||
| 05-May | 03:00AM | VFR | 100° | 7 kt | 10000 meters | 20° | 68° | 1° | 33° | 28% | 1018 mb | 2,281 ft | |||
| 05-May | 02:00AM | VFR | 100° | 7 kt | 10000 meters | 21° | 69° | 2° | 35° | 28% | 1018 mb | 2,401 ft | |||
| 05-May | 01:00AM | VFR | 100° | 7 kt | 10000 meters | 21° | 69° | 2° | 35° | 28% | 1018 mb | 2,401 ft | |||
| 05-May | 12:00AM | VFR | 110° | 8 kt | 10000 meters | 22° | 71° | 2° | 35° | 27% | 1018 mb | 2,521 ft | |||
| 04-May | 11:00PM | VFR | 110° | 7 kt | 10000 meters | 23° | 73° | 3° | 37° | 27% | 1019 mb | 2,612 ft | |||
| 04-May | 10:00PM | VFR | 80° | 7 kt | 10000 meters | 24° | 75° | 3° | 37° | 25% | 1019 mb | 2,732 ft | |||
| 04-May | 09:00PM | VFR | 120° | 6 kt | 10000 meters | 25° | 77° | 3° | 37° | 24% | 1019 mb | 2,852 ft | |||
| 04-May | 08:00PM | VFR | 140° | 9 kt | 10000 meters | 26° | 78° | 4° | 39° | 24% | 1019 mb | 2,972 ft | |||
| 04-May | 07:00PM | VFR | 140° | 6 kt | 10000 meters | 27° | 80° | 4° | 39° | 23% | 1018 mb | 3,121 ft | |||
| 04-May | 06:00PM | VFR | 150° | 8 kt | 10000 meters | 28° | 82° | 5° | 41° | 23% | 1017 mb | 3,271 ft | |||
| 04-May | 05:00PM | VFR | 150° | 6 kt | 10000 meters | 30° | 86° | 4° | 39° | 19% | 1017 mb | 3,511 ft | |||
| 04-May | 04:00PM | VFR | 130° | 5 kt | 10000 meters | 30° | 86° | 5° | 41° | 21% | 1017 mb | 3,511 ft | |||
| 04-May | 03:00PM | VFR | 140° | 4 kt | 10000 meters | 30° | 86° | 5° | 41° | 21% | 1017 mb | 3,511 ft | |||
| 04-May | 02:00PM | VFR | 190° | 6 kt | 10000 meters | 30° | 86° | 4° | 39° | 19% | 1017 mb | 3,511 ft | |||
| 04-May | 01:00PM | VFR | 10° | 4 kt | 10000 meters | 30° | 86° | 3° | 37° | 18% | 1018 mb | 3,481 ft | |||
| 04-May | 12:00PM | VFR | 130° | 4 kt | 10000 meters | 29° | 84° | 1° | 33° | 16% | 1019 mb | 3,332 ft | |||
| 04-May | 11:00AM | VFR | 70° | 5 kt | 10000 meters | 28° | 82° | 1° | 33° | 17% | 1020 mb | 3,182 ft | |||
| 04-May | 10:00AM | VFR | 70° | 7 kt | 10000 meters | 26° | 78° | -1° | 30° | 17% | 1021 mb | 2,912 ft |
Login
| Your browser is unsupported. upgrade your browser |
